createdAt,value
2019-01-26T00:00:42.131Z,-2.40
2019-01-26T00:03:30.294Z,-2.40
2019-01-26T00:06:18.427Z,-2.30
2019-01-26T00:12:22.927Z,-2.40
2019-01-26T00:15:11.141Z,-2.30
2019-01-26T00:17:59.637Z,-2.30
2019-01-26T00:20:47.782Z,-2.30
2019-01-26T00:23:35.920Z,-2.30
2019-01-26T00:26:24.044Z,-2.20
2019-01-26T00:29:12.200Z,-2.20
2019-01-26T00:32:00.316Z,-2.20
2019-01-26T00:34:48.368Z,-2.20
2019-01-26T00:37:36.490Z,-2.20
2019-01-26T00:40:24.545Z,-2.20
2019-01-26T00:43:12.586Z,-2.10
2019-01-26T00:46:00.624Z,-2.10
2019-01-26T00:48:41.477Z,-2.10
2019-01-26T00:51:22.801Z,-2.10
2019-01-26T00:54:03.952Z,-2.10
2019-01-26T00:56:42.784Z,-2.20
2019-01-26T00:59:30.848Z,-2.10
2019-01-26T01:02:18.953Z,-2.10
2019-01-26T01:05:07.265Z,-2.30
2019-01-26T01:07:55.425Z,-2.20
2019-01-26T01:10:43.565Z,-2.20
2019-01-26T01:13:31.604Z,-2.30
2019-01-26T01:16:19.693Z,-2.40
2019-01-26T01:19:08.039Z,-2.20
2019-01-26T01:21:56.262Z,-2.30
2019-01-26T01:24:44.307Z,-2.30
2019-01-26T01:27:32.889Z,-2.20
2019-01-26T01:30:21.053Z,-2.20
2019-01-26T01:33:09.101Z,-2.30
2019-01-26T01:35:57.157Z,-2.10
2019-01-26T01:38:45.505Z,-2.10
2019-01-26T01:41:33.561Z,-2.10
2019-01-26T01:44:21.669Z,-2.00
2019-01-26T01:47:01.252Z,-2.00
2019-01-26T01:49:49.392Z,-2.10
2019-01-26T01:52:37.600Z,-2.00
2019-01-26T01:55:25.637Z,-2.00
2019-01-26T01:58:13.709Z,-2.00
2019-01-26T02:01:01.861Z,-2.00
2019-01-26T02:03:49.897Z,-2.00
2019-01-26T02:06:38.037Z,-2.10
2019-01-26T02:09:26.076Z,-2.10
2019-01-26T02:12:14.217Z,-2.20
2019-01-26T02:15:02.571Z,-2.10
2019-01-26T02:17:50.698Z,-2.10
2019-01-26T02:20:38.812Z,-2.20
2019-01-26T02:23:26.921Z,-2.20
2019-01-26T02:26:15.329Z,-2.20
2019-01-26T02:29:03.365Z,-2.20
2019-01-26T02:31:51.676Z,-2.30
2019-01-26T02:34:39.742Z,-2.30
2019-01-26T02:37:27.897Z,-2.20
2019-01-26T02:40:16.214Z,-2.20
2019-01-26T02:43:04.432Z,-2.30
2019-01-26T02:45:52.555Z,-2.30
2019-01-26T02:48:33.580Z,-2.20
2019-01-26T02:51:12.315Z,-2.20
2019-01-26T02:54:00.360Z,-2.20
2019-01-26T02:56:48.691Z,-2.20
2019-01-26T02:59:36.749Z,-2.20
2019-01-26T03:02:24.808Z,-2.20
2019-01-26T03:05:13.262Z,-2.30
2019-01-26T03:08:01.316Z,-2.30
2019-01-26T03:10:49.441Z,-2.10
2019-01-26T03:13:37.555Z,-2.10
2019-01-26T03:16:25.609Z,-2.00
2019-01-26T03:19:13.717Z,-2.00
2019-01-26T03:22:02.008Z,-2.10
2019-01-26T03:24:50.045Z,-2.10
2019-01-26T03:27:38.185Z,-2.20
2019-01-26T03:30:26.307Z,-2.20
2019-01-26T03:33:14.448Z,-2.30
2019-01-26T03:36:02.494Z,-2.30
2019-01-26T03:38:50.618Z,-2.50
2019-01-26T03:41:38.721Z,-2.40
2019-01-26T03:44:26.782Z,-2.60
2019-01-26T03:47:05.717Z,-2.50
2019-01-26T03:49:53.783Z,-2.50
2019-01-26T03:52:41.818Z,-2.50
2019-01-26T03:55:29.927Z,-2.50
2019-01-26T03:58:18.053Z,-2.60
2019-01-26T04:01:06.440Z,-2.50
2019-01-26T04:03:54.501Z,-2.70
2019-01-26T04:06:42.566Z,-2.60
2019-01-26T04:09:30.651Z,-2.50
2019-01-26T04:12:18.739Z,-2.50
2019-01-26T04:15:07.824Z,-2.50
2019-01-26T04:17:55.869Z,-2.50
2019-01-26T04:20:44.032Z,-2.50
2019-01-26T04:23:32.163Z,-2.40
2019-01-26T04:26:20.285Z,-2.50
2019-01-26T04:29:08.421Z,-2.40
2019-01-26T04:31:56.456Z,-2.30
2019-01-26T04:34:44.514Z,-2.30
2019-01-26T04:37:32.625Z,-2.30
2019-01-26T04:40:20.753Z,-2.20
2019-01-26T04:43:08.791Z,-2.40
2019-01-26T04:45:56.867Z,-2.30
2019-01-26T04:48:37.325Z,-2.20
2019-01-26T04:51:16.106Z,-2.20
2019-01-26T04:54:04.229Z,-2.30
2019-01-26T04:56:52.366Z,-2.20
2019-01-26T04:59:40.412Z,-2.20
2019-01-26T05:02:28.627Z,-2.10
2019-01-26T05:05:37.328Z,-2.20
2019-01-26T05:08:25.464Z,-2.10
2019-01-26T05:11:13.518Z,-2.20
2019-01-26T05:14:01.568Z,-2.10
2019-01-26T05:16:50.011Z,-2.10
2019-01-26T05:19:38.077Z,-2.10
2019-01-26T05:22:26.178Z,-2.00
2019-01-26T05:25:14.425Z,-2.00
2019-01-26T05:28:02.484Z,-2.00
2019-01-26T05:30:50.621Z,-1.90
2019-01-26T05:33:38.650Z,-1.90
2019-01-26T05:36:26.708Z,-1.90
2019-01-26T05:39:14.760Z,-1.80
2019-01-26T05:42:02.869Z,-1.70
2019-01-26T05:44:51.001Z,-1.90
2019-01-26T05:47:29.517Z,-1.70
2019-01-26T05:50:18.436Z,-1.70
2019-01-26T05:52:47.424Z,-1.70
2019-01-26T05:55:35.467Z,-1.60
2019-01-26T05:58:23.757Z,-1.60
2019-01-26T06:01:12.114Z,-1.60
2019-01-26T06:04:00.145Z,-1.50
2019-01-26T06:06:48.430Z,-1.50
2019-01-26T06:09:36.741Z,-1.50
2019-01-26T06:12:25.090Z,-1.50
2019-01-26T06:15:13.215Z,-1.50
2019-01-26T06:17:42.426Z,-1.40
2019-01-26T06:20:30.546Z,-1.40
2019-01-26T06:23:18.576Z,-1.40
2019-01-26T06:26:06.969Z,-1.40
2019-01-26T06:28:54.997Z,-1.30
2019-01-26T06:31:43.122Z,-1.30
2019-01-26T06:34:31.221Z,-1.30
2019-01-26T06:37:19.345Z,-1.20
2019-01-26T06:40:08.412Z,-1.20
2019-01-26T06:42:56.452Z,-1.20
2019-01-26T06:45:44.576Z,-1.20
2019-01-26T06:48:23.449Z,-1.20
2019-01-26T06:51:11.505Z,-1.10
2019-01-26T06:53:59.533Z,-1.10
2019-01-26T06:56:47.605Z,-1.10
2019-01-26T06:59:35.641Z,-1.00
2019-01-26T07:02:23.697Z,-1.10
2019-01-26T07:05:30.870Z,-1.00
2019-01-26T07:08:20.605Z,-1.00
2019-01-26T07:11:08.650Z,-1.00
2019-01-26T07:13:56.772Z,-1.00
2019-01-26T07:16:44.901Z,-0.90
2019-01-26T07:19:33.121Z,-1.00
2019-01-26T07:25:19.674Z,-1.00
2019-01-26T07:28:08.040Z,-0.90
2019-01-26T07:30:56.077Z,-0.90
2019-01-26T07:33:44.188Z,-0.90
2019-01-26T07:36:32.229Z,-0.90
2019-01-26T07:39:20.332Z,-0.80
2019-01-26T07:42:08.380Z,-0.80
2019-01-26T07:44:56.497Z,-0.80
2019-01-26T07:47:35.521Z,-0.80
2019-01-26T07:50:23.974Z,-0.80
2019-01-26T07:53:12.024Z,-0.80
2019-01-26T07:56:19.257Z,-0.70
2019-01-26T07:59:07.375Z,-0.70
2019-01-26T08:01:55.494Z,-0.60
2019-01-26T08:04:43.605Z,-0.60
2019-01-26T08:07:31.716Z,-0.80
2019-01-26T08:10:20.868Z,-0.60
2019-01-26T08:13:09.093Z,-0.50
2019-01-26T08:15:57.126Z,-0.60
2019-01-26T08:18:45.173Z,-0.50
2019-01-26T08:25:01.202Z,-0.50
2019-01-26T08:27:49.316Z,-0.50
2019-01-26T08:30:37.433Z,-0.50
2019-01-26T08:33:25.481Z,-0.40
2019-01-26T08:36:13.585Z,-0.40
2019-01-26T08:39:01.865Z,-0.40
2019-01-26T08:41:49.911Z,-0.40
2019-01-26T08:44:37.961Z,-0.30
2019-01-26T08:47:19.058Z,-0.30
2019-01-26T08:49:59.718Z,-0.30
2019-01-26T08:52:41.289Z,-0.40
2019-01-26T08:55:20.365Z,-0.20
2019-01-26T08:58:08.484Z,-0.10
2019-01-26T09:00:56.595Z,-0.10
2019-01-26T09:04:03.770Z,-0.10
2019-01-26T09:06:55.065Z,-0.10
2019-01-26T09:09:43.109Z,-0.10
2019-01-26T09:12:31.136Z,0.00
2019-01-26T09:15:19.248Z,0.10
2019-01-26T09:20:55.692Z,0.20
2019-01-26T09:23:43.766Z,0.20
2019-01-26T09:26:31.806Z,0.30
2019-01-26T09:29:19.932Z,0.30
2019-01-26T09:32:08.033Z,0.20
2019-01-26T09:34:56.076Z,0.40
2019-01-26T09:37:44.178Z,0.40
2019-01-26T09:40:32.294Z,0.50
2019-01-26T09:43:20.334Z,0.50
2019-01-26T09:46:08.464Z,0.60
2019-01-26T09:48:56.518Z,0.60
2019-01-26T09:51:44.641Z,0.60
2019-01-26T09:54:32.697Z,0.50
2019-01-26T09:57:20.721Z,0.60
2019-01-26T10:00:11.223Z,0.60
2019-01-26T10:02:59.321Z,0.70
2019-01-26T10:05:47.352Z,0.70
2019-01-26T10:08:35.694Z,0.70
2019-01-26T10:11:23.861Z,0.80
2019-01-26T10:14:11.968Z,0.80
2019-01-26T10:16:40.893Z,0.90
2019-01-26T10:19:35.662Z,0.90
2019-01-26T10:22:23.699Z,0.90
2019-01-26T10:25:11.890Z,1.00
2019-01-26T10:28:20.510Z,1.00
2019-01-26T10:31:08.549Z,1.00
2019-01-26T10:33:56.578Z,1.10
2019-01-26T10:37:03.669Z,1.20
2019-01-26T10:42:46.778Z,1.30
2019-01-26T10:45:34.965Z,1.30
2019-01-26T10:48:15.668Z,1.30
2019-01-26T10:50:56.317Z,1.30
2019-01-26T10:53:25.140Z,1.20
2019-01-26T10:56:13.250Z,1.20
2019-01-26T10:59:01.359Z,1.20
2019-01-26T11:01:49.485Z,1.30
2019-01-26T11:04:37.826Z,1.40
2019-01-26T11:07:25.873Z,1.50
2019-01-26T11:10:14.081Z,1.50
2019-01-26T11:13:02.333Z,1.60
2019-01-26T11:15:50.381Z,1.60
2019-01-26T11:18:38.723Z,1.60
2019-01-26T11:21:26.834Z,1.70
2019-01-26T11:24:14.853Z,1.60
2019-01-26T11:27:03.050Z,1.70
2019-01-26T11:29:51.140Z,1.70
2019-01-26T11:32:39.184Z,1.70
2019-01-26T11:35:27.285Z,1.70
2019-01-26T11:38:15.324Z,1.70
2019-01-26T11:41:03.428Z,1.70
2019-01-26T11:43:51.529Z,1.80
2019-01-26T11:46:50.918Z,1.80
2019-01-26T11:49:32.223Z,1.80
2019-01-26T11:52:12.765Z,1.90
2019-01-26T11:57:28.238Z,2.00
2019-01-26T12:00:39.288Z,2.10
2019-01-26T12:06:49.137Z,2.10
2019-01-26T12:09:37.427Z,2.00
2019-01-26T12:12:25.537Z,2.00
2019-01-26T12:15:14.377Z,2.10
2019-01-26T12:18:02.488Z,2.10
2019-01-26T12:20:50.586Z,2.10
2019-01-26T12:23:38.873Z,2.20
2019-01-26T12:26:26.967Z,2.20
2019-01-26T12:29:15.258Z,2.20
2019-01-26T12:32:03.366Z,2.20
2019-01-26T12:34:51.708Z,2.20
2019-01-26T12:37:39.808Z,2.20
2019-01-26T12:40:27.928Z,2.30
2019-01-26T12:43:15.979Z,2.30
2019-01-26T12:46:04.080Z,2.40
2019-01-26T12:48:45.377Z,2.40
2019-01-26T12:51:26.586Z,2.30
2019-01-26T12:54:07.117Z,2.30
2019-01-26T12:56:45.782Z,2.30
2019-01-26T12:59:34.200Z,2.30
2019-01-26T13:02:22.297Z,2.30
2019-01-26T13:05:10.410Z,2.40
2019-01-26T13:07:58.517Z,2.40
2019-01-26T13:10:48.025Z,2.40
2019-01-26T13:13:36.061Z,2.40
2019-01-26T13:16:24.221Z,2.40
2019-01-26T13:19:12.341Z,2.50
2019-01-26T13:22:00.368Z,2.50
2019-01-26T13:24:48.478Z,2.40
2019-01-26T13:27:36.573Z,2.50
2019-01-26T13:30:24.695Z,2.50
2019-01-26T13:33:12.788Z,2.50
2019-01-26T13:36:01.124Z,2.50
2019-01-26T13:38:49.220Z,2.60
2019-01-26T13:41:37.818Z,2.60
2019-01-26T13:44:26.191Z,2.50
2019-01-26T13:47:08.808Z,2.60
2019-01-26T13:49:49.338Z,2.50
2019-01-26T13:52:28.012Z,2.60
2019-01-26T13:55:17.105Z,2.60
2019-01-26T13:58:05.353Z,2.60
2019-01-26T14:00:53.405Z,2.60
2019-01-26T14:03:41.429Z,2.60
2019-01-26T14:06:29.461Z,2.60
2019-01-26T14:09:17.500Z,2.70
2019-01-26T14:12:05.601Z,2.70
2019-01-26T14:14:53.637Z,2.60
2019-01-26T14:17:41.741Z,2.70
2019-01-26T14:20:29.857Z,2.70
2019-01-26T14:23:18.085Z,2.80
2019-01-26T14:26:06.193Z,2.80
2019-01-26T14:28:54.226Z,2.80
2019-01-26T14:31:42.265Z,2.80
2019-01-26T14:34:30.401Z,2.90
2019-01-26T14:40:29.638Z,3.00
2019-01-26T14:43:17.660Z,3.00
2019-01-26T14:46:05.780Z,3.10
2019-01-26T14:48:46.928Z,3.10
2019-01-26T14:51:27.445Z,3.20
2019-01-26T14:54:08.445Z,3.20
2019-01-26T14:56:48.929Z,3.20
2019-01-26T14:59:27.557Z,3.10
2019-01-26T15:02:15.597Z,3.10
2019-01-26T15:05:24.218Z,3.10
2019-01-26T15:08:12.308Z,3.10
2019-01-26T15:11:00.354Z,3.20
2019-01-26T15:13:48.466Z,3.10
2019-01-26T15:16:36.504Z,3.50
2019-01-26T15:19:24.604Z,3.70
2019-01-26T15:22:12.639Z,3.90
2019-01-26T15:25:00.692Z,3.80
2019-01-26T15:30:38.300Z,3.50
2019-01-26T15:33:26.404Z,3.40
2019-01-26T15:36:14.522Z,3.30
2019-01-26T15:39:03.656Z,3.20
2019-01-26T15:41:52.473Z,3.20
2019-01-26T15:44:40.496Z,3.20
2019-01-26T15:47:19.413Z,3.10
2019-01-26T15:50:13.033Z,3.10
2019-01-26T15:52:57.695Z,3.10
2019-01-26T15:55:46.045Z,3.00
2019-01-26T15:58:34.149Z,3.00
2019-01-26T16:01:22.185Z,3.00
2019-01-26T16:04:10.532Z,3.00
2019-01-26T16:06:58.642Z,3.00
2019-01-26T16:09:46.669Z,3.00
2019-01-26T16:12:34.954Z,3.00
2019-01-26T16:15:24.328Z,2.90
2019-01-26T16:18:13.597Z,2.90
2019-01-26T16:21:01.714Z,2.90
2019-01-26T16:23:49.732Z,3.00
2019-01-26T16:26:37.773Z,2.90
2019-01-26T16:29:25.794Z,2.90
2019-01-26T16:32:14.792Z,2.90
2019-01-26T16:34:46.573Z,2.90
2019-01-26T16:37:34.802Z,2.80
2019-01-26T16:40:24.518Z,2.80
2019-01-26T16:43:12.785Z,2.70
2019-01-26T16:46:01.069Z,2.70
2019-01-26T16:48:42.141Z,2.60
2019-01-26T16:51:22.966Z,2.60
2019-01-26T16:54:03.658Z,2.70
2019-01-26T16:56:44.261Z,2.70
2019-01-26T16:59:24.841Z,2.60
2019-01-26T17:02:05.746Z,2.60
2019-01-26T17:04:46.733Z,2.60
2019-01-26T17:07:25.432Z,2.50
2019-01-26T17:10:14.533Z,2.50
2019-01-26T17:13:02.653Z,2.40
2019-01-26T17:15:50.752Z,2.40
2019-01-26T17:18:39.037Z,2.40
2019-01-26T17:21:27.330Z,2.40
2019-01-26T17:24:15.354Z,2.40
2019-01-26T17:27:03.700Z,2.30
2019-01-26T17:29:52.024Z,2.30
2019-01-26T17:32:40.314Z,2.30
2019-01-26T17:35:28.412Z,2.20
2019-01-26T17:38:16.460Z,2.30
2019-01-26T17:41:04.557Z,2.30
2019-01-26T17:43:52.596Z,2.30
2019-01-26T17:52:40.156Z,2.10
2019-01-26T17:55:14.449Z,2.20
2019-01-26T17:58:02.761Z,2.10
2019-01-26T18:01:09.912Z,2.10
2019-01-26T18:03:58.024Z,2.10
2019-01-26T18:06:46.073Z,2.10
2019-01-26T18:09:34.168Z,2.10
2019-01-26T18:12:22.281Z,2.10
2019-01-26T18:15:10.999Z,2.10
2019-01-26T18:17:59.345Z,2.10
2019-01-26T18:20:49.413Z,2.10
2019-01-26T18:23:37.448Z,2.10
2019-01-26T18:26:25.793Z,2.10
2019-01-26T18:29:13.841Z,2.10
2019-01-26T18:32:01.917Z,2.10
2019-01-26T18:34:50.012Z,2.20
2019-01-26T18:37:38.374Z,2.20
2019-01-26T18:40:26.467Z,2.20
2019-01-26T18:43:14.589Z,2.20
2019-01-26T18:46:02.788Z,2.10
2019-01-26T18:48:44.390Z,2.20
2019-01-26T18:51:23.369Z,2.20
2019-01-26T18:54:11.729Z,2.20
2019-01-26T18:56:59.753Z,2.20
2019-01-26T18:59:48.045Z,2.20
2019-01-26T19:02:36.168Z,2.20
2019-01-26T19:05:24.200Z,2.10
2019-01-26T19:08:12.445Z,2.10
2019-01-26T19:11:00.540Z,2.10
2019-01-26T19:13:48.813Z,2.00
2019-01-26T19:16:36.917Z,2.10
2019-01-26T19:19:24.964Z,2.00
2019-01-26T19:22:13.061Z,2.10
2019-01-26T19:25:01.409Z,2.00
2019-01-26T19:27:49.529Z,2.00
2019-01-26T19:30:37.624Z,1.90
2019-01-26T19:33:25.734Z,1.90
2019-01-26T19:36:13.833Z,1.90
2019-01-26T19:39:01.957Z,1.90
2019-01-26T19:41:50.056Z,1.80
2019-01-26T19:44:38.332Z,1.90
2019-01-26T19:47:18.901Z,1.80
2019-01-26T19:49:59.576Z,1.80
2019-01-26T19:55:21.574Z,1.90
2019-01-26T19:58:00.807Z,2.00
2019-01-26T20:00:48.889Z,2.00
2019-01-26T20:03:37.000Z,2.00
2019-01-26T20:06:25.110Z,2.00
2019-01-26T20:09:13.742Z,1.90
2019-01-26T20:12:01.836Z,2.00
2019-01-26T20:14:50.183Z,2.10
2019-01-26T20:17:38.401Z,2.10
2019-01-26T20:20:27.769Z,2.10
2019-01-26T20:23:15.800Z,2.10
2019-01-26T20:26:04.417Z,2.20
2019-01-26T20:28:52.456Z,2.20
2019-01-26T20:31:40.567Z,2.20
2019-01-26T20:34:28.662Z,2.20
2019-01-26T20:37:16.688Z,2.20
2019-01-26T20:40:05.315Z,2.20
2019-01-26T20:42:53.437Z,2.30
2019-01-26T20:45:41.562Z,2.30
2019-01-26T20:48:22.018Z,2.30
2019-01-26T20:51:02.409Z,2.30
2019-01-26T20:53:41.301Z,2.30
2019-01-26T20:56:29.409Z,2.30
2019-01-26T20:59:17.762Z,2.30
2019-01-26T21:02:05.867Z,2.30
2019-01-26T21:04:54.169Z,2.30
2019-01-26T21:07:42.290Z,2.30
2019-01-26T21:10:30.402Z,2.30
2019-01-26T21:13:18.497Z,2.30
2019-01-26T21:16:06.627Z,2.30
2019-01-26T21:18:54.656Z,2.30
2019-01-26T21:21:42.946Z,2.30
2019-01-26T21:24:31.058Z,2.40
2019-01-26T21:27:19.081Z,2.30
2019-01-26T21:30:09.236Z,2.30
2019-01-26T21:32:57.652Z,2.30
2019-01-26T21:35:45.752Z,2.30
2019-01-26T21:38:33.772Z,2.30
2019-01-26T21:41:22.125Z,2.40
2019-01-26T21:44:10.544Z,2.30
2019-01-26T21:46:58.600Z,2.30
2019-01-26T21:49:37.361Z,2.30
2019-01-26T21:52:25.629Z,2.30
2019-01-26T21:55:13.745Z,2.20
2019-01-26T21:58:02.070Z,2.20
2019-01-26T22:00:50.429Z,2.10
2019-01-26T22:03:38.520Z,2.10
2019-01-26T22:06:26.793Z,2.10
2019-01-26T22:09:14.822Z,2.20
2019-01-26T22:12:02.877Z,2.20
2019-01-26T22:14:50.897Z,2.20
2019-01-26T22:17:39.013Z,2.20
2019-01-26T22:20:27.619Z,2.20
2019-01-26T22:23:15.649Z,2.20
2019-01-26T22:26:03.764Z,2.10
2019-01-26T22:28:51.773Z,2.00
2019-01-26T22:31:39.813Z,1.90
2019-01-26T22:34:27.870Z,1.80
2019-01-26T22:37:15.889Z,1.80
2019-01-26T22:40:04.911Z,1.70
2019-01-26T22:42:52.955Z,1.70
2019-01-26T22:45:40.993Z,1.70
2019-01-26T22:48:21.962Z,1.70
2019-01-26T22:51:02.760Z,1.70
2019-01-26T22:53:44.686Z,1.60
2019-01-26T22:56:25.654Z,1.70
2019-01-26T23:01:55.793Z,1.70
2019-01-26T23:04:36.634Z,1.70
2019-01-26T23:07:17.314Z,1.70
2019-01-26T23:09:58.110Z,1.60
2019-01-26T23:12:39.096Z,1.50
2019-01-26T23:15:20.066Z,1.50
2019-01-26T23:18:00.425Z,1.40
2019-01-26T23:20:40.933Z,1.30
2019-01-26T23:23:21.517Z,1.30
2019-01-26T23:26:02.337Z,1.20
2019-01-26T23:28:43.434Z,1.20
2019-01-26T23:31:24.301Z,1.10
2019-01-26T23:34:05.258Z,1.00
2019-01-26T23:36:45.934Z,1.00
2019-01-26T23:39:26.697Z,0.90
2019-01-26T23:42:07.258Z,0.90
2019-01-26T23:44:47.859Z,0.90
2019-01-26T23:47:28.566Z,1.00
2019-01-26T23:50:09.298Z,1.00
2019-01-26T23:52:50.197Z,1.20
2019-01-26T23:55:30.813Z,1.20
2019-01-26T23:58:11.330Z,1.20
